DTW weather

Detroit Metropolitan Wayne County Airport
Detroit, Michigan, United States

Public forecast

Using degrees Fahrenheit for public forecast. Weather courtesy of forecast.io.

METAR (pilot weather report)

Retrieved 2017/08/16 17:53 UTC (39 minutes ago):

KDTW 161753Z 17007KT 10SM FEW050 SCT080 27/14 A3006 RMK AO2 SLP176 T02720144 10278 20194 58008

TAF (pilot weather forecast)

Retrieved 2017/08/16 18:30 UTC (2 minutes ago):

TAF KDTW 161729Z 1618/1724 13006KT P6SM SCT050 FM162300 14005KT P6SM SCT050 OVC150 FM170900 12007KT 5SM BR BKN028 OVC060 FM171300 14009KT P6SM BKN030 PROB30 1713/1716 2SM +TSRA BKN014 OVC022CB FM171900 20013G20KT P6SM BKN030 PROB30 1721/1724 2SM +TSRA BKN020 OVC030CB